Broomfield, CO (80023)

10:25 PM MDT on July 29, 2016 (GMT -0600)
Northmoor Subdivision - Central Broomfield | | Change Station

Elev 5384 ft 39.94 °N, 105.05 °W | Updated 9 seconds ago

Mostly Cloudy
Mostly Cloudy
69.6 °F
Feels Like 69.6 °F
N
3.1
Wind Variable Wind from NW
Gusts 7.6 mph

Today
High -- | Low -- °F
--% Chance of Precip.
Yesterday
High -- | Low -- °F
Precip. -- in
Pressure 30.15 in
Visibility 35.0 miles
Clouds Scattered Clouds 6000 ft
Mostly Cloudy 12000 ft
Dew Point 61 °F
Humidity 75%
Rainfall 0.00 in
Snow Depth Not available.
5:56 AM 8:16 PM
Waning Crescent, 16% visible
METAR KBJC 300347Z 29017KT 35SM SCT060 BKN120 21/14 A3015 RMK OCNL LTGCG DNST NE
Pressure 30.15 in
Visibility 35.0 miles
Clouds Scattered Clouds 6000 ft
Mostly Cloudy 12000 ft
Dew Point 61 °F
Humidity 75%
Rainfall 0.00 in
Snow Depth Not available.
5:56 AM 8:16 PM
Waning Crescent, 16% visible
METAR KBJC 300347Z 29017KT 35SM SCT060 BKN120 21/14 A3015 RMK OCNL LTGCG DNST NE

10-Day Weather Forecast

Almanac

Astronomy

Jul. 29, 2016 Rise Set
Actual Time
Civil Twilight
Nautical Twilight
Astronomical Twilight
Moon
Length of Visible Light
Length of Day
Tomorrow will be .
, % of the Moon is Illuminated

Today's Extremes

State Highs State Lows

Community

WunderPhotos

Upload Photos

1,928,506 photos uploaded!

WunderBlog® & News

Nearby

Air Quality

  Air Quality AQ Index Pollutant
Not available.

Snow Depth

Station Depth Elevation

Earthquake Activity

City Distance Mag. Time & Date
Minimum magnitude displayed is 2.5.

Coastal Water Temperatures

Place Temperature

Stations

Nearby Weather Stations

Station Location Temp. Windchill Dew Point Humidity Wind Precip. Elev Updated Type
                   

Watches & Warnings

There are currently no watches in effect.